createdAt,value
2022-10-18T03:35:04.116Z,98674.84
2022-10-18T03:40:06.644Z,98674.84
2022-10-18T03:45:09.380Z,98683.33
2022-10-18T03:50:11.025Z,98683.33
2022-10-18T03:55:12.799Z,98665.1
2022-10-18T04:00:16.541Z,98665.1
2022-10-18T04:05:18.291Z,98664.41
2022-10-18T04:10:19.994Z,98664.41
2022-10-18T04:15:21.831Z,98661.08
2022-10-18T04:20:24.122Z,98661.08
2022-10-18T04:25:25.787Z,98658.36
2022-10-18T04:30:27.463Z,98657.13
2022-10-18T04:35:29.149Z,98657.13
2022-10-18T04:40:30.795Z,98652.62
2022-10-18T04:45:32.518Z,98652.62
2022-10-18T04:50:34.244Z,98636.69
2022-10-18T04:55:35.924Z,98636.69
2022-10-18T05:00:40.781Z,98641.53
2022-10-18T05:10:48.308Z,98637.28
2022-10-18T05:15:50.201Z,98637.28
2022-10-18T05:20:51.782Z,98637.28
2022-10-18T05:25:53.397Z,98637.28
2022-10-18T05:30:55.178Z,98637.28
2022-10-18T05:35:56.963Z,98637.28
2022-10-18T05:40:59.140Z,98637.28
2022-10-18T05:46:00.843Z,98637.28
2022-10-18T05:51:02.595Z,98637.28
2022-10-18T05:56:04.835Z,98645.47
2022-10-18T06:01:07.310Z,98645.47
2022-10-18T06:06:10.812Z,98650.94
2022-10-18T06:11:13.739Z,98650.94
2022-10-18T06:16:16.517Z,98651.03
2022-10-18T06:21:19.024Z,98651.03
2022-10-18T06:26:20.982Z,98654.86
2022-10-18T06:31:22.752Z,98654.86
2022-10-18T06:36:24.488Z,98657.7
2022-10-18T06:41:26.291Z,98657.7
2022-10-18T06:46:28.002Z,98663.23
2022-10-18T06:51:30.043Z,98663.23
2022-10-18T06:56:31.777Z,98670.08
2022-10-18T07:01:33.590Z,98670.08
2022-10-18T07:06:35.346Z,98661.7
2022-10-18T07:11:36.934Z,98653.35
2022-10-18T07:16:38.565Z,98653.35
2022-10-18T07:21:40.305Z,98656.34
2022-10-18T07:26:41.962Z,98656.34
2022-10-18T07:31:43.570Z,98658.59
2022-10-18T07:36:45.247Z,98658.59
2022-10-18T07:41:47.314Z,98651.68
2022-10-18T07:46:49.068Z,98651.68
2022-10-18T07:51:50.771Z,98639.67
2022-10-18T07:56:52.767Z,98639.67
2022-10-18T08:01:54.583Z,98638.26
2022-10-18T08:06:56.377Z,98638.26
2022-10-18T08:11:57.964Z,98621.09
2022-10-18T08:16:59.941Z,98621.09
2022-10-18T08:22:01.666Z,98616.2
2022-10-18T08:27:03.472Z,98613.91
2022-10-18T08:32:05.516Z,98613.91
2022-10-18T08:37:07.245Z,98593
2022-10-18T08:42:15.206Z,98593
2022-10-18T08:47:18.254Z,98581.86
2022-10-18T08:52:25.727Z,98581.86
2022-10-18T08:57:27.749Z,98571.31
2022-10-18T09:02:36.299Z,98571.31
2022-10-18T09:07:45.411Z,98565.63
2022-10-18T09:28:15.042Z,98545.91
2022-10-18T09:38:28.178Z,98528.73
2022-10-18T09:48:42.165Z,98520.19
2022-10-18T09:58:49.879Z,98517.52
2022-10-18T10:03:51.684Z,98511.27
2022-10-18T10:08:54.941Z,98511.27
2022-10-18T10:13:57.029Z,98506.6
2022-10-18T10:18:58.732Z,98506.6
2022-10-18T10:24:00.482Z,98495.78
2022-10-18T10:29:02.528Z,98495.78
2022-10-18T10:34:05.432Z,98478.13
2022-10-18T10:39:10.502Z,98478.13
2022-10-18T10:44:14.991Z,98452.97
2022-10-18T10:54:26.201Z,98459.77
2022-10-18T10:59:30.351Z,98441.64
2022-10-18T11:04:32.044Z,98441.64
2022-10-18T11:14:44.465Z,98435.59
2022-10-18T11:24:55.042Z,98427.95
2022-10-18T11:30:02.984Z,98418.41
2022-10-18T11:50:37.405Z,98388.15
2022-10-18T12:00:50.425Z,98377.53
2022-10-18T12:05:54.574Z,98361.37
2022-10-18T12:16:04.975Z,98344.55
2022-10-18T12:21:07.129Z,98344.55
2022-10-18T12:26:10.301Z,98335.33
2022-10-18T12:31:16.004Z,98335.33
2022-10-18T12:41:29.208Z,98321.95
2022-10-18T12:56:43.005Z,98294.87
2022-10-18T13:32:35.823Z,98278.48
2022-10-18T13:37:37.521Z,98278.48
2022-10-18T13:42:39.199Z,98273.43
2022-10-18T13:47:40.961Z,98273.43
2022-10-18T14:08:12.324Z,98250.67
2022-10-18T14:13:19.219Z,98250.67
2022-10-18T14:18:24.697Z,98237.93
2022-10-18T14:23:31.330Z,98237.93
2022-10-18T14:33:41.496Z,98223.28
2022-10-18T14:38:46.063Z,98214.36
2022-10-18T14:43:47.946Z,98214.36
2022-10-18T14:48:51.473Z,98207.65
2022-10-18T14:53:53.547Z,98207.65
2022-10-18T14:58:56.350Z,98199.08
2022-10-18T15:03:59.056Z,98199.08
2022-10-18T15:09:02.074Z,98193.78
2022-10-18T15:14:05.121Z,98190.12
2022-10-18T15:24:19.042Z,98192.92
2022-10-18T15:29:21.520Z,98192.92
2022-10-18T15:34:24.171Z,98188.16
2022-10-18T15:39:26.986Z,98188.16
2022-10-18T15:44:31.269Z,98187
2022-10-18T15:54:43.483Z,98178.48
2022-10-18T15:59:51.226Z,98178.48
2022-10-18T16:04:53.259Z,98181.23
2022-10-18T16:09:54.933Z,98181.23
2022-10-18T16:14:56.509Z,98188.34
2022-10-18T16:19:58.126Z,98200.68
2022-10-18T16:24:59.747Z,98200.68
2022-10-18T16:30:01.525Z,98202.11
2022-10-18T16:35:03.269Z,98202.11
2022-10-18T16:45:10.270Z,98203.09
2022-10-18T16:50:14.805Z,98204.73
2022-10-18T16:55:16.720Z,98204.73
2022-10-18T17:00:20.363Z,98211.78
2022-10-18T17:05:22.813Z,98211.78
2022-10-18T17:10:26.099Z,98210.92
2022-10-18T17:20:33.827Z,98204.02
2022-10-18T17:30:42.893Z,98187.24
2022-10-18T17:35:45.825Z,98201.02
2022-10-18T17:40:48.196Z,98201.02
2022-10-18T17:45:54.267Z,98204.41
2022-10-18T17:50:57.095Z,98204.41
2022-10-18T17:56:03.580Z,98196.91
2022-10-18T18:01:10.041Z,98196.91
2022-10-18T18:06:14.727Z,98193.13
2022-10-18T18:11:17.587Z,98193.13
2022-10-18T18:16:24.627Z,98192.77
2022-10-18T18:21:27.867Z,98192.77
2022-10-18T18:26:31.200Z,98177.57
2022-10-18T18:36:40.911Z,98165.08
2022-10-18T18:41:43.987Z,98158.97
2022-10-18T18:46:46.945Z,98158.97
2022-10-18T18:51:50.129Z,98155.22
2022-10-18T18:56:53.265Z,98155.22
2022-10-18T19:01:56.839Z,98147.41
2022-10-18T19:06:59.654Z,98147.41
2022-10-18T19:12:02.652Z,98132.22
2022-10-18T19:17:05.530Z,98132.22
2022-10-18T19:22:08.306Z,98136.41
2022-10-18T19:27:13.473Z,98136.41
2022-10-18T19:32:16.224Z,98140.81
2022-10-18T19:37:19.963Z,98141.1
2022-10-18T19:42:32.306Z,98141.1
2022-10-18T19:47:35.583Z,98131.95
2022-10-18T19:52:38.859Z,98131.95
2022-10-18T19:57:41.441Z,98120.72
2022-10-18T20:02:43.725Z,98120.72
2022-10-18T20:07:46.015Z,98109.57
2022-10-18T20:12:48.031Z,98109.57
2022-10-18T20:17:50.010Z,98115.82
2022-10-18T20:22:52.254Z,98115.82
2022-10-18T20:27:53.987Z,98106.13
2022-10-18T20:32:57.578Z,98106.13
2022-10-18T20:37:59.344Z,98105.2
2022-10-18T20:43:04.478Z,98105.2
2022-10-18T20:48:06.247Z,98089.33
2022-10-18T20:53:07.963Z,98089.33
2022-10-18T20:58:09.846Z,98089.33
2022-10-18T21:08:14.505Z,98089.33
2022-10-18T21:13:16.268Z,98089.33
2022-10-18T21:18:18.120Z,98089.33
2022-10-18T21:23:20.449Z,98089.33
2022-10-18T21:28:23.483Z,98089.33
2022-10-18T21:33:25.098Z,98089.33
2022-10-18T21:38:26.731Z,98089.33
